sensor_id;sensor_type;location;lat;lon;timestamp;P1;durP1;ratioP1;P2;durP2;ratioP2
69979;SDS011;57318;56.232;43.944;2022-07-30T00:00:05;40.70;;;21.50;;
69979;SDS011;57318;56.232;43.944;2022-07-30T00:02:32;42.20;;;21.02;;
69979;SDS011;57318;56.232;43.944;2022-07-30T00:04:58;41.97;;;21.60;;
69979;SDS011;57318;56.232;43.944;2022-07-30T00:07:24;38.23;;;20.03;;
69979;SDS011;57318;56.232;43.944;2022-07-30T00:09:49;37.20;;;21.13;;
69979;SDS011;57318;56.232;43.944;2022-07-30T00:12:15;40.77;;;21.93;;
69979;SDS011;57318;56.232;43.944;2022-07-30T00:14:41;47.17;;;22.40;;
69979;SDS011;57318;56.232;43.944;2022-07-30T00:17:07;41.30;;;21.00;;
69979;SDS011;57318;56.232;43.944;2022-07-30T00:19:33;46.77;;;21.37;;
69979;SDS011;57318;56.232;43.944;2022-07-30T00:21:58;44.43;;;21.07;;
69979;SDS011;57318;56.232;43.944;2022-07-30T00:24:24;44.33;;;21.67;;
69979;SDS011;57318;56.232;43.944;2022-07-30T00:26:50;43.95;;;20.25;;
69979;SDS011;57318;56.232;43.944;2022-07-30T00:29:16;39.77;;;21.33;;
69979;SDS011;57318;56.232;43.944;2022-07-30T00:31:41;40.43;;;20.20;;
69979;SDS011;57318;56.232;43.944;2022-07-30T00:34:07;39.73;;;20.10;;
69979;SDS011;57318;56.232;43.944;2022-07-30T00:36:32;39.87;;;20.63;;
69979;SDS011;57318;56.232;43.944;2022-07-30T00:38:58;41.83;;;19.63;;
69979;SDS011;57318;56.232;43.944;2022-07-30T00:41:24;36.40;;;19.93;;
69979;SDS011;57318;56.232;43.944;2022-07-30T00:43:50;29.95;;;17.73;;
69979;SDS011;57318;56.232;43.944;2022-07-30T00:46:16;34.73;;;18.73;;
69979;SDS011;57318;56.232;43.944;2022-07-30T00:48:41;33.30;;;19.20;;
69979;SDS011;57318;56.232;43.944;2022-07-30T00:51:07;36.73;;;19.43;;
69979;SDS011;57318;56.232;43.944;2022-07-30T00:53:33;38.72;;;21.10;;
69979;SDS011;57318;56.232;43.944;2022-07-30T00:56:00;35.88;;;19.63;;
69979;SDS011;57318;56.232;43.944;2022-07-30T00:58:27;33.35;;;19.08;;
69979;SDS011;57318;56.232;43.944;2022-07-30T01:00:53;38.42;;;20.23;;
69979;SDS011;57318;56.232;43.944;2022-07-30T01:03:19;32.87;;;18.70;;
69979;SDS011;57318;56.232;43.944;2022-07-30T01:05:45;33.90;;;18.10;;
69979;SDS011;57318;56.232;43.944;2022-07-30T01:08:10;30.77;;;16.85;;
69979;SDS011;57318;56.232;43.944;2022-07-30T01:10:36;32.20;;;16.13;;
69979;SDS011;57318;56.232;43.944;2022-07-30T01:13:02;30.03;;;17.13;;
69979;SDS011;57318;56.232;43.944;2022-07-30T01:15:30;30.50;;;17.23;;
69979;SDS011;57318;56.232;43.944;2022-07-30T01:17:57;24.05;;;14.73;;
69979;SDS011;57318;56.232;43.944;2022-07-30T01:20:27;26.98;;;15.02;;
69979;SDS011;57318;56.232;43.944;2022-07-30T01:28:14;21.02;;;11.40;;
69979;SDS011;57318;56.232;43.944;2022-07-30T01:30:43;15.80;;;11.25;;
69979;SDS011;57318;56.232;43.944;2022-07-30T01:35:38;19.38;;;10.55;;
69979;SDS011;57318;56.232;43.944;2022-07-30T01:38:06;17.02;;;11.02;;
69979;SDS011;57318;56.232;43.944;2022-07-30T01:40:35;19.13;;;10.88;;
69979;SDS011;57318;56.232;43.944;2022-07-30T01:43:03;17.38;;;10.70;;
69979;SDS011;57318;56.232;43.944;2022-07-30T01:45:31;15.18;;;10.95;;
69979;SDS011;57318;56.232;43.944;2022-07-30T01:47:59;17.50;;;10.93;;
69979;SDS011;57318;56.232;43.944;2022-07-30T01:50:28;20.15;;;11.45;;
69979;SDS011;57318;56.232;43.944;2022-07-30T01:52:56;17.20;;;11.48;;
69979;SDS011;57318;56.232;43.944;2022-07-30T01:58:00;20.40;;;10.50;;
69979;SDS011;57318;56.232;43.944;2022-07-30T02:00:28;13.80;;;8.95;;
69979;SDS011;57318;56.232;43.944;2022-07-30T02:02:57;15.23;;;9.77;;
69979;SDS011;57318;56.232;43.944;2022-07-30T02:05:23;16.02;;;10.07;;
69979;SDS011;57318;56.232;43.944;2022-07-30T02:07:51;17.95;;;12.00;;
69979;SDS011;57318;56.232;43.944;2022-07-30T02:10:30;18.10;;;11.52;;
69979;SDS011;57318;56.232;43.944;2022-07-30T02:13:02;16.02;;;11.75;;
69979;SDS011;57318;56.232;43.944;2022-07-30T02:15:34;20.77;;;12.85;;
69979;SDS011;57318;56.232;43.944;2022-07-30T02:20:50;21.83;;;12.93;;
69979;SDS011;57318;56.232;43.944;2022-07-30T02:23:22;16.80;;;11.93;;
69979;SDS011;57318;56.232;43.944;2022-07-30T02:25:50;19.90;;;12.93;;
69979;SDS011;57318;56.232;43.944;2022-07-30T02:28:16;21.43;;;13.13;;
69979;SDS011;57318;56.232;43.944;2022-07-30T02:30:48;23.08;;;13.70;;
69979;SDS011;57318;56.232;43.944;2022-07-30T02:33:16;18.48;;;13.30;;
69979;SDS011;57318;56.232;43.944;2022-07-30T02:35:46;19.17;;;13.13;;
69979;SDS011;57318;56.232;43.944;2022-07-30T02:38:13;15.85;;;11.82;;
69979;SDS011;57318;56.232;43.944;2022-07-30T02:40:42;17.83;;;12.85;;
69979;SDS011;57318;56.232;43.944;2022-07-30T02:43:09;17.67;;;11.10;;
69979;SDS011;57318;56.232;43.944;2022-07-30T02:45:38;17.98;;;11.18;;
69979;SDS011;57318;56.232;43.944;2022-07-30T02:48:06;15.57;;;9.85;;
69979;SDS011;57318;56.232;43.944;2022-07-30T02:50:34;16.05;;;10.68;;
69979;SDS011;57318;56.232;43.944;2022-07-30T02:53:01;18.38;;;12.55;;
69979;SDS011;57318;56.232;43.944;2022-07-30T02:55:30;15.02;;;10.88;;
69979;SDS011;57318;56.232;43.944;2022-07-30T02:57:58;14.32;;;9.57;;
69979;SDS011;57318;56.232;43.944;2022-07-30T03:00:27;10.57;;;8.02;;
69979;SDS011;57318;56.232;43.944;2022-07-30T03:02:54;16.48;;;10.45;;
69979;SDS011;57318;56.232;43.944;2022-07-30T03:05:21;16.05;;;10.82;;
69979;SDS011;57318;56.232;43.944;2022-07-30T03:10:13;21.02;;;12.93;;
69979;SDS011;57318;56.232;43.944;2022-07-30T03:12:41;23.48;;;13.68;;
69979;SDS011;57318;56.232;43.944;2022-07-30T03:15:09;18.88;;;13.05;;
69979;SDS011;57318;56.232;43.944;2022-07-30T03:20:08;24.25;;;14.70;;
69979;SDS011;57318;56.232;43.944;2022-07-30T03:22:39;25.27;;;14.88;;
69979;SDS011;57318;56.232;43.944;2022-07-30T03:25:08;23.58;;;14.88;;
69979;SDS011;57318;56.232;43.944;2022-07-30T03:27:35;25.63;;;15.98;;
69979;SDS011;57318;56.232;43.944;2022-07-30T03:30:03;26.13;;;16.70;;
69979;SDS011;57318;56.232;43.944;2022-07-30T03:32:30;27.13;;;16.25;;
69979;SDS011;57318;56.232;43.944;2022-07-30T03:34:58;25.10;;;15.23;;
69979;SDS011;57318;56.232;43.944;2022-07-30T03:37:25;23.38;;;15.45;;
69979;SDS011;57318;56.232;43.944;2022-07-30T03:39:52;20.20;;;14.98;;
69979;SDS011;57318;56.232;43.944;2022-07-30T03:42:19;21.40;;;13.88;;
69979;SDS011;57318;56.232;43.944;2022-07-30T03:44:46;20.02;;;14.38;;
69979;SDS011;57318;56.232;43.944;2022-07-30T03:47:13;19.70;;;14.23;;
69979;SDS011;57318;56.232;43.944;2022-07-30T03:49:40;20.15;;;13.68;;
69979;SDS011;57318;56.232;43.944;2022-07-30T03:52:05;17.35;;;12.65;;
69979;SDS011;57318;56.232;43.944;2022-07-30T03:54:32;21.27;;;12.73;;
69979;SDS011;57318;56.232;43.944;2022-07-30T03:57:02;18.55;;;12.98;;
69979;SDS011;57318;56.232;43.944;2022-07-30T03:59:29;20.20;;;12.52;;
69979;SDS011;57318;56.232;43.944;2022-07-30T04:01:59;17.42;;;12.43;;
69979;SDS011;57318;56.232;43.944;2022-07-30T04:04:26;17.73;;;12.00;;
69979;SDS011;57318;56.232;43.944;2022-07-30T04:06:52;21.50;;;12.82;;
69979;SDS011;57318;56.232;43.944;2022-07-30T04:09:18;18.77;;;13.03;;
69979;SDS011;57318;56.232;43.944;2022-07-30T04:11:44;21.48;;;13.18;;
69979;SDS011;57318;56.232;43.944;2022-07-30T04:14:10;29.40;;;23.23;;
69979;SDS011;57318;56.232;43.944;2022-07-30T04:16:36;53.27;;;45.73;;
69979;SDS011;57318;56.232;43.944;2022-07-30T04:19:14;59.40;;;48.53;;
69979;SDS011;57318;56.232;43.944;2022-07-30T04:21:44;68.15;;;54.08;;
69979;SDS011;57318;56.232;43.944;2022-07-30T04:24:13;67.45;;;57.17;;
69979;SDS011;57318;56.232;43.944;2022-07-30T04:26:41;51.28;;;43.60;;
69979;SDS011;57318;56.232;43.944;2022-07-30T04:29:08;35.63;;;30.95;;
69979;SDS011;57318;56.232;43.944;2022-07-30T04:31:35;20.02;;;15.88;;
69979;SDS011;57318;56.232;43.944;2022-07-30T04:34:01;17.65;;;10.63;;
69979;SDS011;57318;56.232;43.944;2022-07-30T04:36:29;15.60;;;9.85;;
69979;SDS011;57318;56.232;43.944;2022-07-30T04:38:56;14.73;;;10.18;;
69979;SDS011;57318;56.232;43.944;2022-07-30T04:43:49;20.02;;;11.30;;
69979;SDS011;57318;56.232;43.944;2022-07-30T04:46:15;18.63;;;12.75;;
69979;SDS011;57318;56.232;43.944;2022-07-30T04:48:41;20.50;;;13.00;;
69979;SDS011;57318;56.232;43.944;2022-07-30T04:51:08;16.63;;;12.07;;
69979;SDS011;57318;56.232;43.944;2022-07-30T04:53:48;14.98;;;11.73;;
69979;SDS011;57318;56.232;43.944;2022-07-30T04:56:15;16.85;;;11.90;;
69979;SDS011;57318;56.232;43.944;2022-07-30T04:58:42;17.63;;;10.88;;
69979;SDS011;57318;56.232;43.944;2022-07-30T05:01:10;16.42;;;10.40;;
69979;SDS011;57318;56.232;43.944;2022-07-30T05:03:41;13.73;;;9.45;;
69979;SDS011;57318;56.232;43.944;2022-07-30T05:11:02;9.80;;;6.95;;
69979;SDS011;57318;56.232;43.944;2022-07-30T05:13:28;11.30;;;7.05;;
69979;SDS011;57318;56.232;43.944;2022-07-30T05:15:54;9.23;;;6.50;;
69979;SDS011;57318;56.232;43.944;2022-07-30T05:18:19;10.07;;;6.80;;
69979;SDS011;57318;56.232;43.944;2022-07-30T05:20:45;8.90;;;7.17;;
69979;SDS011;57318;56.232;43.944;2022-07-30T05:23:11;10.97;;;8.37;;
69979;SDS011;57318;56.232;43.944;2022-07-30T05:25:36;11.83;;;7.10;;
69979;SDS011;57318;56.232;43.944;2022-07-30T05:28:02;13.83;;;7.70;;
69979;SDS011;57318;56.232;43.944;2022-07-30T05:30:28;9.50;;;6.90;;
69979;SDS011;57318;56.232;43.944;2022-07-30T05:32:53;11.17;;;6.33;;
69979;SDS011;57318;56.232;43.944;2022-07-30T05:35:19;15.50;;;7.47;;
69979;SDS011;57318;56.232;43.944;2022-07-30T05:37:45;11.87;;;7.60;;
69979;SDS011;57318;56.232;43.944;2022-07-30T05:40:10;11.50;;;6.50;;
69979;SDS011;57318;56.232;43.944;2022-07-30T05:42:36;11.38;;;6.68;;
69979;SDS011;57318;56.232;43.944;2022-07-30T05:45:02;11.80;;;6.07;;
69979;SDS011;57318;56.232;43.944;2022-07-30T05:47:29;13.27;;;9.60;;
69979;SDS011;57318;56.232;43.944;2022-07-30T05:49:55;13.40;;;8.30;;
69979;SDS011;57318;56.232;43.944;2022-07-30T05:52:20;10.40;;;6.03;;
69979;SDS011;57318;56.232;43.944;2022-07-30T05:54:46;7.30;;;5.40;;
69979;SDS011;57318;56.232;43.944;2022-07-30T05:57:12;6.07;;;5.37;;
69979;SDS011;57318;56.232;43.944;2022-07-30T05:59:37;6.73;;;4.93;;
69979;SDS011;57318;56.232;43.944;2022-07-30T06:02:03;5.87;;;5.27;;
69979;SDS011;57318;56.232;43.944;2022-07-30T06:04:30;6.95;;;5.10;;
69979;SDS011;57318;56.232;43.944;2022-07-30T06:06:56;7.25;;;5.35;;
69979;SDS011;57318;56.232;43.944;2022-07-30T06:09:22;7.63;;;5.80;;
69979;SDS011;57318;56.232;43.944;2022-07-30T06:11:47;6.33;;;4.70;;
69979;SDS011;57318;56.232;43.944;2022-07-30T06:14:13;8.57;;;5.30;;
69979;SDS011;57318;56.232;43.944;2022-07-30T06:16:39;6.60;;;4.33;;
69979;SDS011;57318;56.232;43.944;2022-07-30T06:19:04;5.07;;;4.57;;
69979;SDS011;57318;56.232;43.944;2022-07-30T06:21:30;7.25;;;4.70;;
69979;SDS011;57318;56.232;43.944;2022-07-30T06:23:56;7.83;;;4.90;;
69979;SDS011;57318;56.232;43.944;2022-07-30T06:26:23;8.77;;;4.95;;
69979;SDS011;57318;56.232;43.944;2022-07-30T06:28:48;6.07;;;4.90;;
69979;SDS011;57318;56.232;43.944;2022-07-30T06:31:14;8.03;;;4.70;;
69979;SDS011;57318;56.232;43.944;2022-07-30T06:33:40;6.63;;;4.60;;
69979;SDS011;57318;56.232;43.944;2022-07-30T06:36:05;6.73;;;4.00;;
69979;SDS011;57318;56.232;43.944;2022-07-30T06:38:31;5.50;;;4.28;;
69979;SDS011;57318;56.232;43.944;2022-07-30T06:40:57;10.68;;;4.03;;
69979;SDS011;57318;56.232;43.944;2022-07-30T06:43:23;4.10;;;3.70;;
69979;SDS011;57318;56.232;43.944;2022-07-30T06:45:49;3.60;;;3.30;;
69979;SDS011;57318;56.232;43.944;2022-07-30T06:48:14;5.53;;;3.85;;
69979;SDS011;57318;56.232;43.944;2022-07-30T06:50:40;4.68;;;3.70;;
69979;SDS011;57318;56.232;43.944;2022-07-30T06:53:06;3.85;;;3.45;;
69979;SDS011;57318;56.232;43.944;2022-07-30T06:55:31;4.72;;;3.28;;
69979;SDS011;57318;56.232;43.944;2022-07-30T06:57:57;4.60;;;3.50;;
69979;SDS011;57318;56.232;43.944;2022-07-30T07:02:49;2.80;;;2.50;;
69979;SDS011;57318;56.232;43.944;2022-07-30T07:05:14;4.07;;;2.72;;
69979;SDS011;57318;56.232;43.944;2022-07-30T07:07:40;4.05;;;3.28;;
69979;SDS011;57318;56.232;43.944;2022-07-30T07:10:06;6.57;;;3.03;;
69979;SDS011;57318;56.232;43.944;2022-07-30T07:12:32;7.25;;;2.95;;
69979;SDS011;57318;56.232;43.944;2022-07-30T07:14:58;3.63;;;2.47;;
69979;SDS011;57318;56.232;43.944;2022-07-30T07:17:23;16.58;;;3.22;;
69979;SDS011;57318;56.232;43.944;2022-07-30T07:19:49;9.50;;;2.72;;
69979;SDS011;57318;56.232;43.944;2022-07-30T07:22:16;3.50;;;2.35;;
69979;SDS011;57318;56.232;43.944;2022-07-30T07:24:41;2.80;;;2.50;;
69979;SDS011;57318;56.232;43.944;2022-07-30T07:27:07;2.60;;;2.20;;
69979;SDS011;57318;56.232;43.944;2022-07-30T07:29:33;4.13;;;2.28;;
69979;SDS011;57318;56.232;43.944;2022-07-30T07:31:59;2.75;;;1.90;;
69979;SDS011;57318;56.232;43.944;2022-07-30T07:34:24;2.53;;;2.30;;
69979;SDS011;57318;56.232;43.944;2022-07-30T07:36:50;2.70;;;2.17;;
69979;SDS011;57318;56.232;43.944;2022-07-30T07:39:16;2.45;;;1.50;;
69979;SDS011;57318;56.232;43.944;2022-07-30T07:41:41;1.83;;;1.70;;
69979;SDS011;57318;56.232;43.944;2022-07-30T07:44:07;2.15;;;1.60;;
69979;SDS011;57318;56.232;43.944;2022-07-30T07:46:33;1.92;;;1.48;;
69979;SDS011;57318;56.232;43.944;2022-07-30T07:48:58;1.83;;;1.52;;
69979;SDS011;57318;56.232;43.944;2022-07-30T07:51:24;3.28;;;2.00;;
69979;SDS011;57318;56.232;43.944;2022-07-30T07:53:50;4.63;;;1.45;;
69979;SDS011;57318;56.232;43.944;2022-07-30T07:56:16;3.95;;;1.67;;
69979;SDS011;57318;56.232;43.944;2022-07-30T07:58:41;7.13;;;1.85;;
69979;SDS011;57318;56.232;43.944;2022-07-30T08:01:07;8.50;;;2.15;;
69979;SDS011;57318;56.232;43.944;2022-07-30T08:03:33;2.45;;;1.55;;
69979;SDS011;57318;56.232;43.944;2022-07-30T08:05:58;6.72;;;1.80;;
69979;SDS011;57318;56.232;43.944;2022-07-30T08:08:25;3.53;;;2.10;;
69979;SDS011;57318;56.232;43.944;2022-07-30T08:10:51;1.70;;;1.60;;
69979;SDS011;57318;56.232;43.944;2022-07-30T08:13:17;2.50;;;2.00;;
69979;SDS011;57318;56.232;43.944;2022-07-30T08:15:43;3.75;;;1.95;;
69979;SDS011;57318;56.232;43.944;2022-07-30T08:18:08;5.50;;;1.80;;
69979;SDS011;57318;56.232;43.944;2022-07-30T08:20:35;4.22;;;1.70;;
69979;SDS011;57318;56.232;43.944;2022-07-30T08:23:02;4.00;;;1.88;;
69979;SDS011;57318;56.232;43.944;2022-07-30T08:25:28;2.53;;;1.52;;
69979;SDS011;57318;56.232;43.944;2022-07-30T08:27:54;3.78;;;1.75;;
69979;SDS011;57318;56.232;43.944;2022-07-30T08:30:20;1.92;;;1.80;;
69979;SDS011;57318;56.232;43.944;2022-07-30T08:32:46;3.80;;;1.75;;
69979;SDS011;57318;56.232;43.944;2022-07-30T08:35:12;5.85;;;2.38;;
69979;SDS011;57318;56.232;43.944;2022-07-30T08:37:37;3.95;;;1.88;;
69979;SDS011;57318;56.232;43.944;2022-07-30T08:40:05;4.15;;;1.90;;
69979;SDS011;57318;56.232;43.944;2022-07-30T08:42:33;11.73;;;2.30;;
69979;SDS011;57318;56.232;43.944;2022-07-30T08:44:59;2.55;;;1.60;;
69979;SDS011;57318;56.232;43.944;2022-07-30T08:47:32;2.25;;;1.70;;
69979;SDS011;57318;56.232;43.944;2022-07-30T08:49:59;3.75;;;1.60;;
69979;SDS011;57318;56.232;43.944;2022-07-30T08:52:33;4.57;;;2.05;;
69979;SDS011;57318;56.232;43.944;2022-07-30T08:55:00;2.63;;;1.60;;
69979;SDS011;57318;56.232;43.944;2022-07-30T08:57:33;2.08;;;1.50;;
69979;SDS011;57318;56.232;43.944;2022-07-30T08:59:59;2.20;;;1.23;;
69979;SDS011;57318;56.232;43.944;2022-07-30T09:02:25;2.08;;;1.30;;
69979;SDS011;57318;56.232;43.944;2022-07-30T09:04:54;5.45;;;1.70;;
69979;SDS011;57318;56.232;43.944;2022-07-30T09:07:19;3.75;;;1.90;;
69979;SDS011;57318;56.232;43.944;2022-07-30T09:09:45;4.07;;;1.77;;
69979;SDS011;57318;56.232;43.944;2022-07-30T09:15:18;3.05;;;1.70;;
69979;SDS011;57318;56.232;43.944;2022-07-30T09:17:49;19.13;;;3.13;;
69979;SDS011;57318;56.232;43.944;2022-07-30T09:20:25;11.30;;;2.60;;
69979;SDS011;57318;56.232;43.944;2022-07-30T09:22:56;2.45;;;1.80;;
69979;SDS011;57318;56.232;43.944;2022-07-30T09:25:40;3.25;;;2.13;;
69979;SDS011;57318;56.232;43.944;2022-07-30T09:28:07;2.75;;;2.05;;
69979;SDS011;57318;56.232;43.944;2022-07-30T09:30:53;2.97;;;1.90;;
69979;SDS011;57318;56.232;43.944;2022-07-30T09:33:30;5.00;;;2.42;;
69979;SDS011;57318;56.232;43.944;2022-07-30T09:36:02;3.85;;;1.70;;
69979;SDS011;57318;56.232;43.944;2022-07-30T09:38:53;1.95;;;1.85;;
69979;SDS011;57318;56.232;43.944;2022-07-30T09:41:19;2.47;;;1.60;;
69979;SDS011;57318;56.232;43.944;2022-07-30T09:43:56;2.60;;;1.30;;
69979;SDS011;57318;56.232;43.944;2022-07-30T09:46:39;3.15;;;1.40;;
69979;SDS011;57318;56.232;43.944;2022-07-30T09:49:15;1.50;;;1.40;;
69979;SDS011;57318;56.232;43.944;2022-07-30T09:51:41;2.13;;;1.90;;
69979;SDS011;57318;56.232;43.944;2022-07-30T09:54:07;3.47;;;1.85;;
69979;SDS011;57318;56.232;43.944;2022-07-30T09:56:32;3.28;;;1.60;;
69979;SDS011;57318;56.232;43.944;2022-07-30T09:58:58;6.30;;;1.80;;
69979;SDS011;57318;56.232;43.944;2022-07-30T10:01:24;1.45;;;1.33;;
69979;SDS011;57318;56.232;43.944;2022-07-30T10:03:49;2.78;;;1.30;;
69979;SDS011;57318;56.232;43.944;2022-07-30T10:06:15;1.60;;;1.30;;
69979;SDS011;57318;56.232;43.944;2022-07-30T10:08:45;2.85;;;1.63;;
69979;SDS011;57318;56.232;43.944;2022-07-30T10:11:17;6.18;;;3.75;;
69979;SDS011;57318;56.232;43.944;2022-07-30T10:13:46;5.55;;;2.00;;
69979;SDS011;57318;56.232;43.944;2022-07-30T10:16:14;7.32;;;1.60;;
69979;SDS011;57318;56.232;43.944;2022-07-30T10:18:41;3.25;;;1.10;;
69979;SDS011;57318;56.232;43.944;2022-07-30T10:21:07;1.50;;;1.40;;
69979;SDS011;57318;56.232;43.944;2022-07-30T10:23:33;1.40;;;1.30;;
69979;SDS011;57318;56.232;43.944;2022-07-30T10:25:59;1.40;;;1.30;;
69979;SDS011;57318;56.232;43.944;2022-07-30T10:28:28;2.20;;;1.48;;
69979;SDS011;57318;56.232;43.944;2022-07-30T10:30:55;5.10;;;2.00;;
69979;SDS011;57318;56.232;43.944;2022-07-30T10:33:23;3.25;;;1.50;;
69979;SDS011;57318;56.232;43.944;2022-07-30T10:35:51;1.33;;;1.30;;
69979;SDS011;57318;56.232;43.944;2022-07-30T10:38:17;3.30;;;2.40;;
69979;SDS011;57318;56.232;43.944;2022-07-30T10:46:01;1.52;;;1.40;;
69979;SDS011;57318;56.232;43.944;2022-07-30T10:48:35;1.40;;;1.30;;
69979;SDS011;57318;56.232;43.944;2022-07-30T10:51:00;1.52;;;1.40;;
69979;SDS011;57318;56.232;43.944;2022-07-30T10:53:30;2.67;;;1.50;;
69979;SDS011;57318;56.232;43.944;2022-07-30T10:56:18;2.30;;;1.30;;
69979;SDS011;57318;56.232;43.944;2022-07-30T11:06:51;1.30;;;1.30;;
69979;SDS011;57318;56.232;43.944;2022-07-30T11:09:36;1.25;;;1.25;;
69979;SDS011;57318;56.232;43.944;2022-07-30T11:12:07;1.50;;;1.40;;
69979;SDS011;57318;56.232;43.944;2022-07-30T11:17:18;4.25;;;1.50;;
69979;SDS011;57318;56.232;43.944;2022-07-30T11:22:35;1.50;;;1.40;;
69979;SDS011;57318;56.232;43.944;2022-07-30T11:27:51;2.05;;;1.20;;
69979;SDS011;57318;56.232;43.944;2022-07-30T11:32:50;1.75;;;1.17;;
69979;SDS011;57318;56.232;43.944;2022-07-30T11:40:22;1.95;;;1.10;;
69979;SDS011;57318;56.232;43.944;2022-07-30T11:42:49;1.23;;;1.13;;
69979;SDS011;57318;56.232;43.944;2022-07-30T11:47:42;1.52;;;1.40;;
69979;SDS011;57318;56.232;43.944;2022-07-30T11:50:22;2.72;;;1.80;;
69979;SDS011;57318;56.232;43.944;2022-07-30T11:55:23;3.17;;;1.50;;
69979;SDS011;57318;56.232;43.944;2022-07-30T11:58:00;1.73;;;1.50;;
69979;SDS011;57318;56.232;43.944;2022-07-30T12:03:06;1.80;;;1.25;;
69979;SDS011;57318;56.232;43.944;2022-07-30T12:05:52;3.08;;;1.30;;
69979;SDS011;57318;56.232;43.944;2022-07-30T12:08:18;2.33;;;1.30;;
69979;SDS011;57318;56.232;43.944;2022-07-30T12:10:53;1.42;;;1.20;;
69979;SDS011;57318;56.232;43.944;2022-07-30T12:13:23;1.30;;;1.20;;
69979;SDS011;57318;56.232;43.944;2022-07-30T12:15:50;1.63;;;1.20;;
69979;SDS011;57318;56.232;43.944;2022-07-30T12:18:22;1.90;;;1.40;;
69979;SDS011;57318;56.232;43.944;2022-07-30T12:21:07;3.50;;;1.58;;
69979;SDS011;57318;56.232;43.944;2022-07-30T12:23:39;1.50;;;1.40;;
69979;SDS011;57318;56.232;43.944;2022-07-30T12:26:30;1.27;;;1.17;;
69979;SDS011;57318;56.232;43.944;2022-07-30T12:29:05;3.15;;;1.20;;
69979;SDS011;57318;56.232;43.944;2022-07-30T12:31:37;1.25;;;1.20;;
69979;SDS011;57318;56.232;43.944;2022-07-30T12:34:04;3.67;;;1.90;;
69979;SDS011;57318;56.232;43.944;2022-07-30T12:36:42;1.40;;;1.30;;
69979;SDS011;57318;56.232;43.944;2022-07-30T12:39:08;1.50;;;1.40;;
69979;SDS011;57318;56.232;43.944;2022-07-30T12:41:50;1.95;;;1.65;;
69979;SDS011;57318;56.232;43.944;2022-07-30T12:44:36;2.40;;;1.60;;
69979;SDS011;57318;56.232;43.944;2022-07-30T12:47:22;1.73;;;1.60;;
69979;SDS011;57318;56.232;43.944;2022-07-30T12:49:50;2.88;;;1.38;;
69979;SDS011;57318;56.232;43.944;2022-07-30T12:52:24;3.75;;;1.75;;
69979;SDS011;57318;56.232;43.944;2022-07-30T12:55:02;2.28;;;1.80;;
69979;SDS011;57318;56.232;43.944;2022-07-30T13:00:28;4.65;;;1.77;;
69979;SDS011;57318;56.232;43.944;2022-07-30T13:02:56;2.22;;;1.80;;
69979;SDS011;57318;56.232;43.944;2022-07-30T13:08:07;1.70;;;1.60;;
69979;SDS011;57318;56.232;43.944;2022-07-30T13:10:32;1.73;;;1.50;;
69979;SDS011;57318;56.232;43.944;2022-07-30T13:12:58;2.05;;;1.85;;
69979;SDS011;57318;56.232;43.944;2022-07-30T13:15:25;1.45;;;1.35;;
69979;SDS011;57318;56.232;43.944;2022-07-30T13:17:51;2.17;;;1.92;;
69979;SDS011;57318;56.232;43.944;2022-07-30T13:20:16;1.60;;;1.50;;
69979;SDS011;57318;56.232;43.944;2022-07-30T13:22:42;2.15;;;1.50;;
69979;SDS011;57318;56.232;43.944;2022-07-30T13:25:09;1.60;;;1.50;;
69979;SDS011;57318;56.232;43.944;2022-07-30T13:27:36;3.15;;;1.50;;
69979;SDS011;57318;56.232;43.944;2022-07-30T13:30:02;1.60;;;1.50;;
69979;SDS011;57318;56.232;43.944;2022-07-30T13:32:29;3.30;;;1.75;;
69979;SDS011;57318;56.232;43.944;2022-07-30T13:34:55;5.15;;;1.60;;
69979;SDS011;57318;56.232;43.944;2022-07-30T13:37:21;1.83;;;1.60;;
69979;SDS011;57318;56.232;43.944;2022-07-30T13:39:47;1.65;;;1.55;;
69979;SDS011;57318;56.232;43.944;2022-07-30T13:42:13;2.45;;;1.60;;
69979;SDS011;57318;56.232;43.944;2022-07-30T13:44:39;2.42;;;1.63;;
69979;SDS011;57318;56.232;43.944;2022-07-30T13:47:05;2.05;;;1.60;;
69979;SDS011;57318;56.232;43.944;2022-07-30T13:49:33;1.73;;;1.60;;
69979;SDS011;57318;56.232;43.944;2022-07-30T13:52:02;1.52;;;1.30;;
69979;SDS011;57318;56.232;43.944;2022-07-30T13:54:28;1.33;;;1.23;;
69979;SDS011;57318;56.232;43.944;2022-07-30T13:56:54;1.35;;;1.30;;
69979;SDS011;57318;56.232;43.944;2022-07-30T13:59:20;2.17;;;1.58;;
69979;SDS011;57318;56.232;43.944;2022-07-30T14:01:46;4.10;;;1.50;;
69979;SDS011;57318;56.232;43.944;2022-07-30T14:04:11;2.88;;;1.40;;
69979;SDS011;57318;56.232;43.944;2022-07-30T14:06:37;2.90;;;1.30;;
69979;SDS011;57318;56.232;43.944;2022-07-30T14:09:03;2.05;;;1.48;;
69979;SDS011;57318;56.232;43.944;2022-07-30T14:11:29;1.60;;;1.50;;
69979;SDS011;57318;56.232;43.944;2022-07-30T14:13:55;3.05;;;1.50;;
69979;SDS011;57318;56.232;43.944;2022-07-30T14:16:21;1.80;;;1.40;;
69979;SDS011;57318;56.232;43.944;2022-07-30T14:18:46;1.58;;;1.20;;
69979;SDS011;57318;56.232;43.944;2022-07-30T14:21:12;1.65;;;1.55;;
69979;SDS011;57318;56.232;43.944;2022-07-30T14:23:37;5.30;;;1.58;;
69979;SDS011;57318;56.232;43.944;2022-07-30T14:26:03;2.55;;;1.40;;
69979;SDS011;57318;56.232;43.944;2022-07-30T14:28:29;2.40;;;1.48;;
69979;SDS011;57318;56.232;43.944;2022-07-30T14:30:54;4.93;;;1.20;;
69979;SDS011;57318;56.232;43.944;2022-07-30T14:33:20;1.30;;;1.20;;
69979;SDS011;57318;56.232;43.944;2022-07-30T14:35:46;2.72;;;1.20;;
69979;SDS011;57318;56.232;43.944;2022-07-30T14:38:11;1.50;;;1.40;;
69979;SDS011;57318;56.232;43.944;2022-07-30T14:40:37;1.63;;;1.30;;
69979;SDS011;57318;56.232;43.944;2022-07-30T14:43:02;1.73;;;1.63;;
69979;SDS011;57318;56.232;43.944;2022-07-30T14:45:28;1.80;;;1.60;;
69979;SDS011;57318;56.232;43.944;2022-07-30T14:47:54;2.00;;;1.50;;
69979;SDS011;57318;56.232;43.944;2022-07-30T14:50:20;1.50;;;1.40;;
69979;SDS011;57318;56.232;43.944;2022-07-30T14:52:46;2.60;;;1.60;;
69979;SDS011;57318;56.232;43.944;2022-07-30T14:55:12;1.67;;;1.42;;
69979;SDS011;57318;56.232;43.944;2022-07-30T14:57:38;1.40;;;1.30;;
69979;SDS011;57318;56.232;43.944;2022-07-30T15:00:04;2.15;;;1.50;;
69979;SDS011;57318;56.232;43.944;2022-07-30T15:02:35;1.70;;;1.20;;
69979;SDS011;57318;56.232;43.944;2022-07-30T15:07:28;1.67;;;1.48;;
69979;SDS011;57318;56.232;43.944;2022-07-30T15:12:20;3.78;;;1.35;;
69979;SDS011;57318;56.232;43.944;2022-07-30T15:17:13;2.25;;;1.77;;
69979;SDS011;57318;56.232;43.944;2022-07-30T15:19:38;2.42;;;1.48;;
69979;SDS011;57318;56.232;43.944;2022-07-30T15:22:04;2.70;;;1.70;;
69979;SDS011;57318;56.232;43.944;2022-07-30T15:24:31;1.45;;;1.35;;
69979;SDS011;57318;56.232;43.944;2022-07-30T15:29:22;2.55;;;1.70;;
69979;SDS011;57318;56.232;43.944;2022-07-30T15:31:49;4.43;;;1.88;;
69979;SDS011;57318;56.232;43.944;2022-07-30T15:34:15;2.78;;;1.75;;
69979;SDS011;57318;56.232;43.944;2022-07-30T15:36:40;1.33;;;1.23;;
69979;SDS011;57318;56.232;43.944;2022-07-30T15:39:06;2.38;;;1.60;;
69979;SDS011;57318;56.232;43.944;2022-07-30T15:41:32;2.00;;;1.80;;
69979;SDS011;57318;56.232;43.944;2022-07-30T15:43:58;1.75;;;1.65;;
69979;SDS011;57318;56.232;43.944;2022-07-30T15:46:24;4.75;;;1.70;;
69979;SDS011;57318;56.232;43.944;2022-07-30T15:48:49;2.42;;;1.90;;
69979;SDS011;57318;56.232;43.944;2022-07-30T15:51:15;3.67;;;2.55;;